sensor_id;sensor_type;location;lat;lon;timestamp;temperature;humidity
26579;DHT22;14227;47.674;19.320;2023-02-19T00:02:06;15.40;57.90
26579;DHT22;14227;47.674;19.320;2023-02-19T00:05:27;15.20;57.50
26579;DHT22;14227;47.674;19.320;2023-02-19T00:09:01;15.30;57.60
26579;DHT22;14227;47.674;19.320;2023-02-19T00:12:32;15.30;57.50
26579;DHT22;14227;47.674;19.320;2023-02-19T00:15:23;15.30;57.50
26579;DHT22;14227;47.674;19.320;2023-02-19T00:18:18;15.30;57.50
26579;DHT22;14227;47.674;19.320;2023-02-19T00:21:11;15.30;57.50
26579;DHT22;14227;47.674;19.320;2023-02-19T00:24:26;15.30;57.40
26579;DHT22;14227;47.674;19.320;2023-02-19T00:27:47;15.20;57.40
26579;DHT22;14227;47.674;19.320;2023-02-19T00:30:56;15.20;57.30
26579;DHT22;14227;47.674;19.320;2023-02-19T00:34:11;15.30;57.50
26579;DHT22;14227;47.674;19.320;2023-02-19T00:41:11;15.30;57.30
26579;DHT22;14227;47.674;19.320;2023-02-19T00:44:33;15.20;57.10
26579;DHT22;14227;47.674;19.320;2023-02-19T00:47:46;15.20;57.20
26579;DHT22;14227;47.674;19.320;2023-02-19T00:50:47;15.20;57.00
26579;DHT22;14227;47.674;19.320;2023-02-19T00:54:13;15.20;57.10
26579;DHT22;14227;47.674;19.320;2023-02-19T00:57:29;15.20;57.10
26579;DHT22;14227;47.674;19.320;2023-02-19T01:00:41;15.10;56.90
26579;DHT22;14227;47.674;19.320;2023-02-19T01:03:59;15.10;56.90
26579;DHT22;14227;47.674;19.320;2023-02-19T01:06:50;15.10;56.90
26579;DHT22;14227;47.674;19.320;2023-02-19T01:13:30;15.10;57.00
26579;DHT22;14227;47.674;19.320;2023-02-19T01:17:03;15.10;56.90
26579;DHT22;14227;47.674;19.320;2023-02-19T01:20:09;15.10;57.00
26579;DHT22;14227;47.674;19.320;2023-02-19T01:23:30;15.00;56.90
26579;DHT22;14227;47.674;19.320;2023-02-19T01:26:24;15.10;56.90
26579;DHT22;14227;47.674;19.320;2023-02-19T01:32:40;15.10;57.00
26579;DHT22;14227;47.674;19.320;2023-02-19T01:36:08;15.00;56.80
26579;DHT22;14227;47.674;19.320;2023-02-19T01:39:35;15.00;56.80
26579;DHT22;14227;47.674;19.320;2023-02-19T01:42:41;15.00;56.90
26579;DHT22;14227;47.674;19.320;2023-02-19T01:46:08;15.00;56.80
26579;DHT22;14227;47.674;19.320;2023-02-19T01:49:31;15.00;56.80
26579;DHT22;14227;47.674;19.320;2023-02-19T01:53:05;15.00;56.90
26579;DHT22;14227;47.674;19.320;2023-02-19T01:56:36;15.00;56.90
26579;DHT22;14227;47.674;19.320;2023-02-19T02:00:04;14.90;56.80
26579;DHT22;14227;47.674;19.320;2023-02-19T02:03:32;15.00;57.00
26579;DHT22;14227;47.674;19.320;2023-02-19T02:07:01;15.00;57.00
26579;DHT22;14227;47.674;19.320;2023-02-19T02:10:24;15.00;56.90
26579;DHT22;14227;47.674;19.320;2023-02-19T02:13:11;15.00;56.90
26579;DHT22;14227;47.674;19.320;2023-02-19T02:16:56;14.90;56.80
26579;DHT22;14227;47.674;19.320;2023-02-19T02:36:39;14.90;56.90
26579;DHT22;14227;47.674;19.320;2023-02-19T02:40:05;14.80;56.70
26579;DHT22;14227;47.674;19.320;2023-02-19T02:43:18;14.90;56.90
26579;DHT22;14227;47.674;19.320;2023-02-19T02:49:55;14.80;56.80
26579;DHT22;14227;47.674;19.320;2023-02-19T02:53:17;14.80;56.90
26579;DHT22;14227;47.674;19.320;2023-02-19T02:56:27;14.80;56.80
26579;DHT22;14227;47.674;19.320;2023-02-19T02:59:52;14.80;56.90
26579;DHT22;14227;47.674;19.320;2023-02-19T03:07:12;14.80;57.00
26579;DHT22;14227;47.674;19.320;2023-02-19T03:10:46;14.80;57.00
26579;DHT22;14227;47.674;19.320;2023-02-19T03:14:32;14.80;56.90
26579;DHT22;14227;47.674;19.320;2023-02-19T03:21:35;14.80;56.90
26579;DHT22;14227;47.674;19.320;2023-02-19T03:36:02;14.70;56.90
26579;DHT22;14227;47.674;19.320;2023-02-19T03:43:23;14.70;57.00
26579;DHT22;14227;47.674;19.320;2023-02-19T04:08:33;14.70;57.00
26579;DHT22;14227;47.674;19.320;2023-02-19T04:11:35;14.60;57.00
26579;DHT22;14227;47.674;19.320;2023-02-19T04:18:45;14.70;57.10
26579;DHT22;14227;47.674;19.320;2023-02-19T04:21:46;14.70;57.10
26579;DHT22;14227;47.674;19.320;2023-02-19T04:25:04;14.60;57.00
26579;DHT22;14227;47.674;19.320;2023-02-19T04:28:07;14.70;57.10
26579;DHT22;14227;47.674;19.320;2023-02-19T04:31:31;14.60;57.10
26579;DHT22;14227;47.674;19.320;2023-02-19T04:41:29;14.70;57.10
26579;DHT22;14227;47.674;19.320;2023-02-19T04:45:00;14.70;57.20
26579;DHT22;14227;47.674;19.320;2023-02-19T04:48:21;14.70;57.20
26579;DHT22;14227;47.674;19.320;2023-02-19T04:51:37;14.60;57.00
26579;DHT22;14227;47.674;19.320;2023-02-19T04:55:11;14.70;57.00
26579;DHT22;14227;47.674;19.320;2023-02-19T04:58:00;14.70;57.10
26579;DHT22;14227;47.674;19.320;2023-02-19T05:00:53;14.70;57.10
26579;DHT22;14227;47.674;19.320;2023-02-19T05:04:08;14.70;57.00
26579;DHT22;14227;47.674;19.320;2023-02-19T05:07:16;14.60;57.00
26579;DHT22;14227;47.674;19.320;2023-02-19T05:10:10;14.70;57.00
26579;DHT22;14227;47.674;19.320;2023-02-19T05:13:29;14.70;57.00
26579;DHT22;14227;47.674;19.320;2023-02-19T05:16:11;14.60;56.90
26579;DHT22;14227;47.674;19.320;2023-02-19T05:19:26;14.70;57.10
26579;DHT22;14227;47.674;19.320;2023-02-19T05:22:51;14.60;57.00
26579;DHT22;14227;47.674;19.320;2023-02-19T05:25:25;14.70;57.00
26579;DHT22;14227;47.674;19.320;2023-02-19T05:28:13;14.60;57.00
26579;DHT22;14227;47.674;19.320;2023-02-19T05:31:19;14.60;56.90
26579;DHT22;14227;47.674;19.320;2023-02-19T05:34:45;14.70;57.00
26579;DHT22;14227;47.674;19.320;2023-02-19T05:37:14;14.60;56.90
26579;DHT22;14227;47.674;19.320;2023-02-19T05:40:32;14.70;57.10
26579;DHT22;14227;47.674;19.320;2023-02-19T05:43:01;14.60;57.00
26579;DHT22;14227;47.674;19.320;2023-02-19T05:45:46;14.60;56.90
26579;DHT22;14227;47.674;19.320;2023-02-19T05:48:40;14.70;57.00
26579;DHT22;14227;47.674;19.320;2023-02-19T05:51:19;14.60;56.90
26579;DHT22;14227;47.674;19.320;2023-02-19T05:54:21;14.70;57.00
26579;DHT22;14227;47.674;19.320;2023-02-19T05:57:39;14.60;56.90
26579;DHT22;14227;47.674;19.320;2023-02-19T06:00:48;14.70;57.10
26579;DHT22;14227;47.674;19.320;2023-02-19T06:04:14;14.60;57.00
26579;DHT22;14227;47.674;19.320;2023-02-19T06:07:18;14.60;57.00
26579;DHT22;14227;47.674;19.320;2023-02-19T06:10:27;14.60;57.00
26579;DHT22;14227;47.674;19.320;2023-02-19T06:13:33;14.50;57.00
26579;DHT22;14227;47.674;19.320;2023-02-19T06:16:40;14.60;57.10
26579;DHT22;14227;47.674;19.320;2023-02-19T06:19:49;14.60;57.10
26579;DHT22;14227;47.674;19.320;2023-02-19T06:22:37;14.60;57.00
26579;DHT22;14227;47.674;19.320;2023-02-19T06:25:27;14.60;57.00
26579;DHT22;14227;47.674;19.320;2023-02-19T06:28:19;14.60;57.00
26579;DHT22;14227;47.674;19.320;2023-02-19T06:31:10;14.60;57.00
26579;DHT22;14227;47.674;19.320;2023-02-19T06:37:23;14.50;56.80
26579;DHT22;14227;47.674;19.320;2023-02-19T06:40:58;14.60;57.00
26579;DHT22;14227;47.674;19.320;2023-02-19T06:51:15;14.50;56.90
26579;DHT22;14227;47.674;19.320;2023-02-19T06:59:25;14.50;56.90
26579;DHT22;14227;47.674;19.320;2023-02-19T09:55:35;14.10;61.30
26579;DHT22;14227;47.674;19.320;2023-02-19T09:59:15;14.00;61.60
26579;DHT22;14227;47.674;19.320;2023-02-19T10:02:33;14.00;62.20
26579;DHT22;14227;47.674;19.320;2023-02-19T10:05:37;14.00;62.70
26579;DHT22;14227;47.674;19.320;2023-02-19T10:09:24;14.00;63.00
26579;DHT22;14227;47.674;19.320;2023-02-19T10:20:15;14.00;64.30
26579;DHT22;14227;47.674;19.320;2023-02-19T10:23:44;14.00;64.50
26579;DHT22;14227;47.674;19.320;2023-02-19T10:30:47;14.00;64.60
26579;DHT22;14227;47.674;19.320;2023-02-19T10:34:16;14.00;64.70
26579;DHT22;14227;47.674;19.320;2023-02-19T10:37:49;14.00;64.40
26579;DHT22;14227;47.674;19.320;2023-02-19T10:44:26;14.10;63.70
26579;DHT22;14227;47.674;19.320;2023-02-19T10:47:57;14.00;63.80
26579;DHT22;14227;47.674;19.320;2023-02-19T10:51:55;14.00;63.90
26579;DHT22;14227;47.674;19.320;2023-02-19T15:22:04;14.80;48.30
26579;DHT22;14227;47.674;19.320;2023-02-19T16:05:10;14.50;49.80
26579;DHT22;14227;47.674;19.320;2023-02-19T16:08:45;14.60;49.90
26579;DHT22;14227;47.674;19.320;2023-02-19T18:52:32;13.90;48.30
26579;DHT22;14227;47.674;19.320;2023-02-19T19:16:39;13.80;48.50
26579;DHT22;14227;47.674;19.320;2023-02-19T19:34:49;13.70;49.00
26579;DHT22;14227;47.674;19.320;2023-02-19T19:42:07;13.70;49.00
26579;DHT22;14227;47.674;19.320;2023-02-19T19:45:18;13.70;49.00
26579;DHT22;14227;47.674;19.320;2023-02-19T19:59:13;13.60;48.90
26579;DHT22;14227;47.674;19.320;2023-02-19T20:02:46;13.60;48.90
26579;DHT22;14227;47.674;19.320;2023-02-19T20:16:36;13.50;47.80
26579;DHT22;14227;47.674;19.320;2023-02-19T20:20:10;13.50;47.60
26579;DHT22;14227;47.674;19.320;2023-02-19T20:36:13;13.50;44.60
26579;DHT22;14227;47.674;19.320;2023-02-19T20:39:38;13.40;43.80
26579;DHT22;14227;47.674;19.320;2023-02-19T20:42:47;13.30;42.80
26579;DHT22;14227;47.674;19.320;2023-02-19T20:46:03;13.30;41.70
26579;DHT22;14227;47.674;19.320;2023-02-19T20:49:27;13.30;40.80
